createdAt,value
2019-04-05T00:00:04.356Z,16.57
2019-04-05T00:02:33.037Z,16.17
2019-04-05T00:05:01.751Z,17.40
2019-04-05T00:07:30.715Z,15.70
2019-04-05T00:09:59.344Z,16.05
2019-04-05T00:12:28.182Z,16.23
2019-04-05T00:14:56.863Z,14.55
2019-04-05T00:17:27.343Z,14.87
2019-04-05T00:19:55.918Z,16.15
2019-04-05T00:22:24.677Z,16.17
2019-04-05T00:24:53.026Z,15.43
2019-04-05T00:27:21.626Z,14.75
2019-04-05T00:29:50.216Z,15.20
2019-04-05T00:32:19.150Z,15.40
2019-04-05T00:34:47.819Z,16.45
2019-04-05T00:37:16.518Z,15.53
2019-04-05T00:39:44.848Z,15.50
2019-04-05T00:42:14.054Z,15.48
2019-04-05T00:44:42.770Z,15.60
2019-04-05T00:47:11.529Z,17.17
2019-04-05T00:49:39.908Z,15.25
2019-04-05T00:52:08.614Z,16.05
2019-04-05T00:54:37.254Z,15.40
2019-04-05T00:57:05.602Z,15.78
2019-04-05T00:59:34.053Z,16.45
2019-04-05T01:02:04.326Z,16.25
2019-04-05T01:04:33.331Z,15.18
2019-04-05T01:07:02.257Z,17.25
2019-04-05T01:09:31.061Z,15.15
2019-04-05T01:12:00.032Z,15.23
2019-04-05T01:14:30.874Z,16.15
2019-04-05T01:16:59.752Z,15.32
2019-04-05T01:22:08.084Z,15.40
2019-04-05T01:24:36.921Z,16.20
2019-04-05T01:27:06.704Z,15.78
2019-04-05T01:29:35.491Z,16.20
2019-04-05T01:32:04.245Z,15.88
2019-04-05T01:34:32.892Z,14.70
2019-04-05T01:37:02.453Z,15.48
2019-04-05T01:39:30.830Z,15.08
2019-04-05T01:41:59.581Z,15.53
2019-04-05T01:44:28.446Z,15.58
2019-04-05T01:46:57.341Z,14.43
2019-04-05T01:49:25.966Z,15.18
2019-04-05T01:51:54.990Z,15.20
2019-04-05T01:54:23.555Z,15.23
2019-04-05T01:56:52.902Z,16.25
2019-04-05T01:59:21.276Z,15.43
2019-04-05T02:01:49.935Z,16.82
2019-04-05T02:04:18.342Z,16.02
2019-04-05T02:06:46.901Z,16.15
2019-04-05T02:09:15.585Z,15.85
2019-04-05T02:11:44.407Z,16.00
2019-04-05T02:14:12.731Z,15.65
2019-04-05T02:16:41.542Z,15.83
2019-04-05T02:19:10.439Z,16.93
2019-04-05T02:21:41.353Z,17.10
2019-04-05T02:24:09.956Z,15.70
2019-04-05T02:26:38.687Z,16.67
2019-04-05T02:29:07.351Z,17.62
2019-04-05T02:31:35.996Z,16.12
2019-04-05T02:34:04.895Z,16.57
2019-04-05T02:36:33.481Z,15.75
2019-04-05T02:39:03.892Z,17.62
2019-04-05T02:41:33.361Z,16.25
2019-04-05T02:44:03.765Z,15.40
2019-04-05T02:46:32.848Z,16.52
2019-04-05T02:49:03.435Z,15.78
2019-04-05T02:51:35.158Z,17.42
2019-04-05T02:54:04.082Z,17.60
2019-04-05T02:56:34.448Z,16.85
2019-04-05T02:59:04.431Z,15.80
2019-04-05T03:01:34.182Z,15.70
2019-04-05T03:04:03.773Z,17.27
2019-04-05T03:06:32.732Z,15.83
2019-04-05T03:09:04.194Z,17.10
2019-04-05T03:11:34.585Z,16.48
2019-04-05T03:14:04.604Z,18.62
2019-04-05T03:16:41.649Z,15.83
2019-04-05T03:19:22.635Z,16.10
2019-04-05T03:22:01.840Z,16.93
2019-04-05T03:24:34.919Z,15.78
2019-04-05T03:27:21.367Z,15.68
2019-04-05T03:29:51.327Z,16.42
2019-04-05T03:32:20.575Z,16.37
2019-04-05T03:34:49.397Z,15.80
2019-04-05T03:37:18.657Z,15.25
2019-04-05T03:39:47.467Z,15.68
2019-04-05T03:42:16.417Z,15.75
2019-04-05T03:44:46.186Z,15.65
2019-04-05T03:47:15.174Z,16.35
2019-04-05T03:49:45.246Z,14.85
2019-04-05T03:52:14.148Z,16.42
2019-04-05T03:54:43.277Z,14.85
2019-04-05T03:57:12.015Z,17.00
2019-04-05T03:59:40.608Z,15.88
2019-04-05T04:02:09.740Z,17.35
2019-04-05T04:04:38.695Z,15.23
2019-04-05T04:07:07.895Z,15.63
2019-04-05T04:09:36.548Z,15.13
2019-04-05T04:12:05.380Z,16.27
2019-04-05T04:14:35.227Z,15.65
2019-04-05T04:17:12.485Z,16.70
2019-04-05T04:19:36.828Z,15.40
2019-04-05T04:22:29.031Z,16.45
2019-04-05T04:24:59.028Z,16.62
2019-04-05T04:27:28.658Z,15.48
2019-04-05T04:30:00.328Z,16.27
2019-04-05T04:32:29.824Z,15.75
2019-04-05T04:34:58.819Z,15.78
2019-04-05T04:37:28.143Z,17.10
2019-04-05T04:39:57.311Z,14.90
2019-04-05T04:42:26.334Z,15.70
2019-04-05T04:44:55.553Z,14.83
2019-04-05T04:47:27.239Z,16.62
2019-04-05T04:49:57.553Z,16.17
2019-04-05T04:52:31.050Z,14.38
2019-04-05T04:54:59.253Z,14.98
2019-04-05T04:57:27.915Z,15.30
2019-04-05T04:59:57.045Z,13.95
2019-04-05T05:02:26.459Z,15.38
2019-04-05T05:04:55.020Z,15.50
2019-04-05T05:07:23.973Z,14.50
2019-04-05T05:09:52.876Z,14.63
2019-04-05T05:12:21.820Z,16.42
2019-04-05T05:14:50.802Z,13.93
2019-04-05T05:17:19.646Z,14.75
2019-04-05T05:19:48.630Z,15.65
2019-04-05T05:22:19.484Z,15.40
2019-04-05T05:24:48.367Z,14.45
2019-04-05T05:27:17.358Z,15.18
2019-04-05T05:29:46.067Z,16.07
2019-04-05T05:32:14.751Z,16.23
2019-04-05T05:34:43.931Z,15.40
2019-04-05T05:37:12.775Z,15.38
2019-04-05T05:39:41.410Z,14.80
2019-04-05T05:42:09.851Z,14.20
2019-04-05T05:44:38.639Z,16.15
2019-04-05T05:47:06.966Z,15.68
2019-04-05T05:49:35.656Z,14.95
2019-04-05T05:52:04.589Z,14.70
2019-04-05T05:54:33.189Z,16.48
2019-04-05T05:57:14.097Z,15.35
2019-04-05T05:59:43.338Z,15.45
2019-04-05T06:02:11.974Z,16.82
2019-04-05T06:04:40.418Z,14.43
2019-04-05T06:07:09.090Z,15.05
2019-04-05T06:09:38.535Z,16.30
2019-04-05T06:12:07.013Z,14.40
2019-04-05T06:14:35.509Z,15.15
2019-04-05T06:17:05.106Z,14.55
2019-04-05T06:19:33.564Z,15.13
2019-04-05T06:22:02.223Z,14.70
2019-04-05T06:24:32.896Z,14.70
2019-04-05T06:27:02.068Z,15.53
2019-04-05T06:29:30.606Z,16.27
2019-04-05T06:31:59.570Z,16.93
2019-04-05T06:34:28.292Z,15.25
2019-04-05T06:36:57.386Z,17.48
2019-04-05T06:39:26.370Z,15.70
2019-04-05T06:41:54.790Z,17.23
2019-04-05T06:44:23.695Z,16.37
2019-04-05T06:46:52.414Z,16.62
2019-04-05T06:49:20.913Z,16.55
2019-04-05T06:51:49.743Z,15.90
2019-04-05T06:54:18.496Z,15.03
2019-04-05T06:56:47.388Z,17.35
2019-04-05T06:59:19.236Z,15.78
2019-04-05T07:01:46.938Z,17.27
2019-04-05T07:04:16.002Z,16.82
2019-04-05T07:06:44.858Z,16.20
2019-04-05T07:09:13.926Z,16.20
2019-04-05T07:11:42.757Z,17.27
2019-04-05T07:14:11.612Z,16.65
2019-04-05T07:16:40.363Z,17.17
2019-04-05T07:19:09.587Z,17.67
2019-04-05T07:21:38.313Z,17.42
2019-04-05T07:24:07.216Z,20.43
2019-04-05T07:29:06.423Z,17.75
2019-04-05T07:31:35.788Z,19.00
2019-04-05T07:34:04.545Z,17.65
2019-04-05T07:36:33.278Z,17.80
2019-04-05T07:39:01.931Z,18.45
2019-04-05T07:41:31.921Z,17.37
2019-04-05T07:44:00.629Z,18.50
2019-04-05T07:46:29.848Z,18.52
2019-04-05T07:48:58.777Z,17.55
2019-04-05T07:51:27.500Z,17.17
2019-04-05T07:53:56.554Z,17.75
2019-04-05T07:56:25.441Z,19.27
2019-04-05T07:58:54.076Z,17.00
2019-04-05T08:01:22.826Z,16.75
2019-04-05T08:03:51.457Z,18.12
2019-04-05T08:06:20.305Z,17.92
2019-04-05T08:09:08.811Z,18.67
2019-04-05T08:11:39.505Z,17.67
2019-04-05T08:14:09.934Z,17.80
2019-04-05T08:16:38.654Z,18.67
2019-04-05T08:19:07.599Z,16.67
2019-04-05T08:21:36.244Z,19.25
2019-04-05T08:24:06.200Z,17.55
2019-04-05T08:26:34.967Z,17.65
2019-04-05T08:29:05.537Z,17.45
2019-04-05T08:31:36.537Z,17.57
2019-04-05T08:34:05.319Z,17.32
2019-04-05T08:36:34.281Z,17.15
2019-04-05T08:39:06.448Z,16.55
2019-04-05T08:41:36.709Z,17.55
2019-04-05T08:44:05.668Z,16.00
2019-04-05T08:46:35.862Z,16.77
2019-04-05T08:49:10.942Z,17.55
2019-04-05T08:51:35.867Z,20.35
2019-04-05T08:54:04.851Z,18.42
2019-04-05T08:56:33.245Z,18.25
2019-04-05T08:59:02.320Z,18.90
2019-04-05T09:01:30.879Z,17.70
2019-04-05T09:04:02.505Z,18.20
2019-04-05T09:06:31.038Z,17.95
2019-04-05T09:08:59.540Z,18.73
2019-04-05T09:11:28.112Z,19.15
2019-04-05T09:13:57.038Z,18.57
2019-04-05T09:16:25.569Z,18.90
2019-04-05T09:18:54.480Z,18.77
2019-04-05T09:21:23.173Z,19.10
2019-04-05T09:23:51.947Z,18.65
2019-04-05T09:26:20.680Z,18.67
2019-04-05T09:28:49.379Z,16.45
2019-04-05T09:31:19.864Z,18.27
2019-04-05T09:33:49.090Z,17.50
2019-04-05T09:36:17.749Z,18.30
2019-04-05T09:38:46.682Z,18.02
2019-04-05T09:41:15.206Z,16.85
2019-04-05T09:43:43.819Z,17.50
2019-04-05T09:46:12.532Z,17.27
2019-04-05T09:48:41.341Z,18.25
2019-04-05T09:51:09.779Z,16.60
2019-04-05T09:53:38.572Z,17.25
2019-04-05T09:56:07.644Z,17.35
2019-04-05T09:58:36.602Z,15.72
2019-04-05T10:01:05.544Z,16.97
2019-04-05T10:03:34.234Z,16.67
2019-04-05T10:06:03.309Z,18.20
2019-04-05T10:08:32.202Z,16.65
2019-04-05T10:11:01.599Z,17.82
2019-04-05T10:13:30.215Z,17.17
2019-04-05T10:15:58.891Z,17.92
2019-04-05T10:18:28.023Z,18.02
2019-04-05T10:20:56.927Z,17.37
2019-04-05T10:23:25.574Z,17.73
2019-04-05T10:25:54.276Z,16.30
2019-04-05T10:28:22.934Z,16.77
2019-04-05T10:30:52.091Z,15.75
2019-04-05T10:33:22.724Z,17.80
2019-04-05T10:35:51.529Z,17.90
2019-04-05T10:38:20.250Z,17.85
2019-04-05T10:40:48.911Z,16.45
2019-04-05T10:43:17.550Z,16.00
2019-04-05T10:45:47.088Z,17.35
2019-04-05T10:48:15.810Z,15.90
2019-04-05T10:50:45.414Z,16.25
2019-04-05T10:53:14.129Z,17.37
2019-04-05T10:55:42.792Z,16.50
2019-04-05T10:58:11.600Z,16.37
2019-04-05T11:00:40.394Z,17.17
2019-04-05T11:03:09.509Z,17.52
2019-04-05T11:05:38.417Z,16.82
2019-04-05T11:08:07.123Z,17.05
2019-04-05T11:10:36.111Z,15.35
2019-04-05T11:13:05.062Z,15.08
2019-04-05T11:15:33.825Z,14.40
2019-04-05T11:18:04.589Z,15.18
2019-04-05T11:23:01.646Z,14.65
2019-04-05T11:25:30.384Z,14.65
2019-04-05T11:27:59.378Z,13.00
2019-04-05T11:30:43.363Z,14.55
2019-04-05T11:33:12.254Z,14.70
2019-04-05T11:35:42.947Z,14.80
2019-04-05T11:38:13.935Z,13.83
2019-04-05T11:40:43.835Z,15.13
2019-04-05T11:43:14.359Z,14.78
2019-04-05T11:45:44.258Z,14.53
2019-04-05T11:48:13.150Z,13.65
2019-04-05T11:50:42.249Z,14.25
2019-04-05T11:53:10.804Z,15.43
2019-04-05T11:55:39.344Z,14.23
2019-04-05T11:58:07.936Z,15.18
2019-04-05T12:01:08.261Z,15.58
2019-04-05T12:06:05.603Z,14.03
2019-04-05T12:08:34.346Z,14.87
2019-04-05T12:11:03.684Z,14.30
2019-04-05T12:13:32.559Z,14.00
2019-04-05T12:16:03.670Z,14.25
2019-04-05T12:18:34.684Z,14.90
2019-04-05T12:23:34.461Z,15.70
2019-04-05T12:26:04.979Z,14.60
2019-04-05T12:28:33.630Z,14.65
2019-04-05T12:31:02.336Z,14.73
2019-04-05T12:33:30.989Z,14.35
2019-04-05T12:36:01.770Z,15.00
2019-04-05T12:38:32.439Z,14.75
2019-04-05T12:41:03.224Z,13.53
2019-04-05T12:43:32.702Z,14.87
2019-04-05T12:46:04.470Z,15.95
2019-04-05T12:48:32.937Z,14.65
2019-04-05T12:51:02.171Z,15.18
2019-04-05T12:53:32.197Z,15.30
2019-04-05T12:56:01.386Z,14.50
2019-04-05T12:58:32.584Z,14.38
2019-04-05T13:01:00.763Z,14.80
2019-04-05T13:03:29.427Z,12.93
2019-04-05T13:05:58.547Z,14.03
2019-04-05T13:08:27.247Z,14.53
2019-04-05T13:10:57.008Z,14.93
2019-04-05T13:13:27.561Z,14.05
2019-04-05T13:15:59.143Z,14.18
2019-04-05T13:18:30.666Z,14.03
2019-04-05T13:21:00.228Z,14.50
2019-04-05T13:23:29.676Z,15.48
2019-04-05T13:25:58.955Z,14.50
2019-04-05T13:28:27.428Z,14.58
2019-04-05T13:30:56.432Z,14.23
2019-04-05T13:33:24.999Z,14.93
2019-04-05T13:35:54.370Z,13.45
2019-04-05T13:38:25.138Z,16.00
2019-04-05T13:40:56.709Z,16.65
2019-04-05T13:43:24.736Z,13.15
2019-04-05T13:45:53.254Z,12.68
2019-04-05T13:48:21.604Z,13.72
2019-04-05T13:50:49.954Z,12.63
2019-04-05T13:53:18.256Z,14.58
2019-04-05T13:55:47.512Z,14.35
2019-04-05T13:58:16.057Z,13.48
2019-04-05T14:00:48.372Z,14.65
2019-04-05T14:03:15.470Z,14.00
2019-04-05T14:05:44.241Z,14.58
2019-04-05T14:08:12.741Z,15.25
2019-04-05T14:10:41.956Z,13.98
2019-04-05T14:13:10.789Z,14.33
2019-04-05T14:15:41.844Z,14.87
2019-04-05T14:18:09.967Z,15.75
2019-04-05T14:20:39.061Z,13.72
2019-04-05T14:23:07.631Z,13.30
2019-04-05T14:25:36.434Z,14.40
2019-04-05T14:28:05.506Z,13.38
2019-04-05T14:30:34.038Z,14.40
2019-04-05T14:33:02.643Z,12.63
2019-04-05T14:35:31.078Z,12.28
2019-04-05T14:37:59.737Z,13.75
2019-04-05T14:40:32.953Z,13.30
2019-04-05T14:43:01.093Z,13.15
2019-04-05T14:45:29.836Z,12.55
2019-04-05T14:47:58.759Z,13.85
2019-04-05T14:50:28.300Z,13.62
2019-04-05T14:53:00.791Z,13.53
2019-04-05T14:55:29.635Z,13.25
2019-04-05T14:57:58.322Z,13.38
2019-04-05T15:00:27.154Z,12.82
2019-04-05T15:02:56.395Z,12.58
2019-04-05T15:05:24.818Z,13.93
2019-04-05T15:07:55.074Z,13.72
2019-04-05T15:12:54.231Z,12.60
2019-04-05T15:15:22.934Z,12.88
2019-04-05T15:17:51.397Z,13.25
2019-04-05T15:20:20.278Z,14.25
2019-04-05T15:22:49.050Z,13.13
2019-04-05T15:25:21.528Z,13.13
2019-04-05T15:27:51.263Z,13.70
2019-04-05T15:30:19.066Z,12.95
2019-04-05T15:32:47.773Z,12.88
2019-04-05T15:35:16.767Z,12.65
2019-04-05T15:37:45.766Z,13.30
2019-04-05T15:40:16.550Z,12.80
2019-04-05T15:42:46.883Z,11.75
2019-04-05T15:45:16.671Z,13.22
2019-04-05T15:47:45.378Z,12.18
2019-04-05T15:50:14.937Z,12.53
2019-04-05T15:52:43.374Z,12.60
2019-04-05T15:55:12.714Z,13.05
2019-04-05T15:57:41.386Z,12.93
2019-04-05T16:00:14.690Z,12.00
2019-04-05T16:02:43.722Z,12.28
2019-04-05T16:05:13.037Z,11.97
2019-04-05T16:07:41.675Z,11.83
2019-04-05T16:10:11.762Z,12.47
2019-04-05T16:12:40.614Z,13.20
2019-04-05T16:15:09.672Z,13.20
2019-04-05T16:17:38.253Z,12.50
2019-04-05T16:20:07.904Z,13.55
2019-04-05T16:22:36.587Z,13.40
2019-04-05T16:25:07.255Z,12.93
2019-04-05T16:27:35.748Z,13.32
2019-04-05T16:30:06.323Z,12.88
2019-04-05T16:35:03.993Z,14.20
2019-04-05T16:37:32.398Z,13.08
2019-04-05T16:40:02.893Z,13.45
2019-04-05T16:45:01.203Z,13.10
2019-04-05T16:47:29.598Z,14.83
2019-04-05T16:49:58.433Z,14.60
2019-04-05T16:52:27.017Z,14.47
2019-04-05T16:54:55.990Z,14.75
2019-04-05T16:57:24.959Z,13.58
2019-04-05T16:59:53.640Z,15.28
2019-04-05T17:02:22.224Z,15.48
2019-04-05T17:04:50.699Z,16.62
2019-04-05T17:07:19.385Z,15.38
2019-04-05T17:09:47.771Z,16.07
2019-04-05T17:12:16.297Z,15.43
2019-04-05T17:14:44.834Z,15.18
2019-04-05T17:17:14.108Z,14.98
2019-04-05T17:19:42.512Z,16.15
2019-04-05T17:22:11.197Z,14.65
2019-04-05T17:24:40.193Z,14.47
2019-04-05T17:27:08.574Z,14.05
2019-04-05T17:29:37.243Z,14.45
2019-04-05T17:32:05.874Z,14.73
2019-04-05T17:34:34.353Z,14.05
2019-04-05T17:37:03.286Z,14.45
2019-04-05T17:39:31.991Z,15.35
2019-04-05T17:42:00.349Z,14.43
2019-04-05T17:44:29.675Z,16.05
2019-04-05T17:47:00.246Z,14.75
2019-04-05T17:49:30.145Z,14.93
2019-04-05T17:51:58.871Z,15.43
2019-04-05T17:54:27.784Z,14.90
2019-04-05T17:56:56.957Z,15.53
2019-04-05T17:59:26.372Z,14.90
2019-04-05T18:01:54.778Z,15.58
2019-04-05T18:04:23.447Z,15.70
2019-04-05T18:06:51.917Z,16.55
2019-04-05T18:09:20.538Z,16.00
2019-04-05T18:11:49.232Z,16.12
2019-04-05T18:14:17.956Z,15.58
2019-04-05T18:16:46.551Z,15.15
2019-04-05T18:19:15.331Z,17.70
2019-04-05T18:21:43.908Z,16.97
2019-04-05T18:24:12.436Z,16.17
2019-04-05T18:26:41.062Z,15.63
2019-04-05T18:29:09.719Z,16.00
2019-04-05T18:31:38.089Z,15.70
2019-04-05T18:34:06.803Z,16.20
2019-04-05T18:36:35.600Z,15.93
2019-04-05T18:39:07.001Z,16.35
2019-04-05T18:41:35.645Z,15.43
2019-04-05T18:44:04.642Z,15.48
2019-04-05T18:46:33.640Z,14.55
2019-04-05T18:49:04.348Z,15.38
2019-04-05T18:51:32.918Z,14.23
2019-04-05T18:54:01.840Z,15.95
2019-04-05T18:56:30.722Z,15.03
2019-04-05T18:58:59.530Z,14.70
2019-04-05T19:01:28.149Z,14.10
2019-04-05T19:03:57.073Z,14.78
2019-04-05T19:06:25.845Z,16.07
2019-04-05T19:08:54.639Z,16.90
2019-04-05T19:11:23.503Z,14.83
2019-04-05T19:14:00.992Z,15.60
2019-04-05T19:16:23.014Z,15.35
2019-04-05T19:18:51.472Z,15.20
2019-04-05T19:21:20.132Z,15.30
2019-04-05T19:23:51.058Z,15.48
2019-04-05T19:28:47.449Z,16.20
2019-04-05T19:48:50.190Z,15.60
2019-04-05T19:51:20.755Z,15.03
2019-04-05T19:53:49.367Z,15.98
2019-04-05T19:56:17.725Z,16.67
2019-04-05T19:58:46.163Z,16.12
2019-04-05T20:01:14.767Z,14.80
2019-04-05T20:03:43.181Z,16.80
2019-04-05T20:06:11.580Z,17.00
2019-04-05T20:08:40.234Z,15.83
2019-04-05T20:11:08.807Z,15.80
2019-04-05T20:13:37.649Z,15.70
2019-04-05T20:16:06.935Z,16.70
2019-04-05T20:18:35.316Z,15.93
2019-04-05T20:21:04.346Z,16.25
2019-04-05T20:23:33.267Z,15.00
2019-04-05T20:26:02.371Z,16.40
2019-04-05T20:28:31.224Z,17.67
2019-04-05T20:30:59.584Z,16.50
2019-04-05T20:33:28.055Z,17.85
2019-04-05T20:35:56.717Z,16.73
2019-04-05T20:38:25.144Z,16.30
2019-04-05T20:40:53.503Z,17.10
2019-04-05T20:43:21.850Z,17.85
2019-04-05T20:45:50.250Z,17.30
2019-04-05T20:48:18.964Z,17.48
2019-04-05T20:50:47.803Z,17.17
2019-04-05T20:55:46.258Z,17.05
2019-04-05T20:58:14.864Z,18.25
2019-04-05T21:00:43.625Z,17.10
2019-04-05T21:03:12.277Z,17.10
2019-04-05T21:05:40.692Z,16.93
2019-04-05T21:08:09.691Z,17.42
2019-04-05T21:10:38.343Z,17.35
2019-04-05T21:13:06.725Z,16.70
2019-04-05T21:15:35.761Z,18.77
2019-04-05T21:18:04.417Z,16.52
2019-04-05T21:20:33.106Z,15.68
2019-04-05T21:23:02.542Z,17.25
2019-04-05T21:25:31.247Z,16.57
2019-04-05T21:27:59.765Z,16.50
2019-04-05T21:30:28.466Z,16.50
2019-04-05T21:32:56.979Z,17.55
2019-04-05T21:35:25.537Z,15.95
2019-04-05T21:37:53.890Z,15.75
2019-04-05T21:40:22.189Z,15.70
2019-04-05T21:42:50.627Z,15.23
2019-04-05T21:45:19.383Z,15.23
2019-04-05T21:47:48.299Z,15.80
2019-04-05T21:50:17.048Z,15.70
2019-04-05T21:52:45.408Z,15.53
2019-04-05T21:55:15.973Z,14.70
2019-04-05T21:57:44.292Z,14.68
2019-04-05T22:00:22.745Z,15.43
2019-04-05T22:02:51.543Z,15.95
2019-04-05T22:05:20.164Z,16.85
2019-04-05T22:07:48.601Z,16.27
2019-04-05T22:10:17.528Z,16.60
2019-04-05T22:12:46.474Z,15.78
2019-04-05T22:15:16.367Z,16.07
2019-04-05T22:17:44.876Z,16.07
2019-04-05T22:20:13.761Z,15.72
2019-04-05T22:22:42.231Z,16.12
2019-04-05T22:25:10.961Z,17.82
2019-04-05T22:27:39.567Z,15.55
2019-04-05T22:30:08.203Z,16.75
2019-04-05T22:32:36.682Z,15.70
2019-04-05T22:35:05.808Z,14.95
2019-04-05T22:37:34.315Z,15.78
2019-04-05T22:40:02.808Z,17.25
2019-04-05T22:42:31.392Z,16.42
2019-04-05T22:44:59.755Z,16.95
2019-04-05T22:47:28.807Z,15.23
2019-04-05T22:49:57.303Z,16.42
2019-04-05T22:52:25.931Z,16.37
2019-04-05T22:54:54.498Z,16.25
2019-04-05T22:57:25.281Z,16.73
2019-04-05T22:59:53.734Z,15.25
2019-04-05T23:02:22.539Z,15.53
2019-04-05T23:04:51.143Z,15.48
2019-04-05T23:07:19.562Z,15.08
2019-04-05T23:09:48.173Z,17.73
2019-04-05T23:12:16.967Z,16.23
2019-04-05T23:14:45.417Z,15.53
2019-04-05T23:17:14.564Z,16.35
2019-04-05T23:19:42.954Z,16.82
2019-04-05T23:22:11.600Z,15.38
2019-04-05T23:24:40.498Z,15.53
2019-04-05T23:27:09.060Z,16.15
2019-04-05T23:29:37.971Z,15.25
2019-04-05T23:32:06.401Z,15.00
2019-04-05T23:34:34.742Z,15.68
2019-04-05T23:37:04.417Z,16.42
2019-04-05T23:39:33.127Z,16.80
2019-04-05T23:42:02.977Z,14.47
2019-04-05T23:44:31.680Z,15.75
2019-04-05T23:47:00.063Z,15.90
2019-04-05T23:49:29.942Z,16.20
2019-04-05T23:51:58.684Z,17.17
2019-04-05T23:54:27.304Z,16.57
2019-04-05T23:56:55.836Z,17.10
2019-04-05T23:59:26.596Z,15.65
